sensor_id;sensor_type;location;lat;lon;timestamp;temperature;humidity
4356;DHT22;64374;51.482;7.408;2023-02-15T00:00:24;12.30;99.90
4356;DHT22;64374;51.482;7.408;2023-02-15T00:02:53;12.10;99.90
4356;DHT22;64374;51.482;7.408;2023-02-15T00:05:23;12.40;99.90
4356;DHT22;64374;51.482;7.408;2023-02-15T00:07:51;12.50;99.90
4356;DHT22;64374;51.482;7.408;2023-02-15T00:10:19;12.60;99.90
4356;DHT22;64374;51.482;7.408;2023-02-15T00:12:47;12.40;99.90
4356;DHT22;64374;51.482;7.408;2023-02-15T00:15:16;12.30;99.90
4356;DHT22;64374;51.482;7.408;2023-02-15T00:17:44;12.20;99.90
4356;DHT22;64374;51.482;7.408;2023-02-15T00:20:13;12.20;99.90
4356;DHT22;64374;51.482;7.408;2023-02-15T00:22:42;12.20;99.90
4356;DHT22;64374;51.482;7.408;2023-02-15T00:25:10;12.00;99.90
4356;DHT22;64374;51.482;7.408;2023-02-15T00:27:39;12.30;99.90
4356;DHT22;64374;51.482;7.408;2023-02-15T00:30:08;12.20;99.90
4356;DHT22;64374;51.482;7.408;2023-02-15T00:32:38;12.10;99.90
4356;DHT22;64374;51.482;7.408;2023-02-15T00:35:09;12.00;99.90
4356;DHT22;64374;51.482;7.408;2023-02-15T00:37:37;12.00;99.90
4356;DHT22;64374;51.482;7.408;2023-02-15T00:40:08;11.90;99.90
4356;DHT22;64374;51.482;7.408;2023-02-15T00:42:36;12.10;99.90
4356;DHT22;64374;51.482;7.408;2023-02-15T00:45:08;12.10;99.90
4356;DHT22;64374;51.482;7.408;2023-02-15T00:47:37;12.00;99.90
4356;DHT22;64374;51.482;7.408;2023-02-15T00:50:06;11.90;99.90
4356;DHT22;64374;51.482;7.408;2023-02-15T00:52:34;11.80;99.90
4356;DHT22;64374;51.482;7.408;2023-02-15T00:55:04;11.80;99.90
4356;DHT22;64374;51.482;7.408;2023-02-15T00:57:34;11.90;99.90
4356;DHT22;64374;51.482;7.408;2023-02-15T01:00:06;11.90;99.90
4356;DHT22;64374;51.482;7.408;2023-02-15T01:02:34;11.80;99.90
4356;DHT22;64374;51.482;7.408;2023-02-15T01:05:02;11.80;99.90
4356;DHT22;64374;51.482;7.408;2023-02-15T01:07:32;11.80;99.90
4356;DHT22;64374;51.482;7.408;2023-02-15T01:10:00;11.80;99.90
4356;DHT22;64374;51.482;7.408;2023-02-15T01:12:29;11.60;99.90
4356;DHT22;64374;51.482;7.408;2023-02-15T01:14:59;11.60;99.90
4356;DHT22;64374;51.482;7.408;2023-02-15T01:17:28;11.60;99.90
4356;DHT22;64374;51.482;7.408;2023-02-15T01:19:55;11.50;99.90
4356;DHT22;64374;51.482;7.408;2023-02-15T01:22:24;11.60;99.90
4356;DHT22;64374;51.482;7.408;2023-02-15T01:24:54;11.70;99.90
4356;DHT22;64374;51.482;7.408;2023-02-15T01:27:24;11.50;99.90
4356;DHT22;64374;51.482;7.408;2023-02-15T01:29:53;11.50;99.90
4356;DHT22;64374;51.482;7.408;2023-02-15T01:32:23;11.40;99.90
4356;DHT22;64374;51.482;7.408;2023-02-15T01:35:18;11.40;99.90
4356;DHT22;64374;51.482;7.408;2023-02-15T01:37:47;11.40;99.90
4356;DHT22;64374;51.482;7.408;2023-02-15T01:40:18;11.60;99.90
4356;DHT22;64374;51.482;7.408;2023-02-15T01:42:50;11.70;99.90
4356;DHT22;64374;51.482;7.408;2023-02-15T01:45:22;11.50;99.90
4356;DHT22;64374;51.482;7.408;2023-02-15T01:47:57;11.60;99.90
4356;DHT22;64374;51.482;7.408;2023-02-15T01:50:30;11.50;99.90
4356;DHT22;64374;51.482;7.408;2023-02-15T01:53:05;11.50;99.90
4356;DHT22;64374;51.482;7.408;2023-02-15T01:55:38;11.40;99.90
4356;DHT22;64374;51.482;7.408;2023-02-15T01:58:07;11.40;99.90
4356;DHT22;64374;51.482;7.408;2023-02-15T02:00:37;11.50;99.90
4356;DHT22;64374;51.482;7.408;2023-02-15T02:03:06;11.60;99.90
4356;DHT22;64374;51.482;7.408;2023-02-15T02:05:35;11.60;99.90
4356;DHT22;64374;51.482;7.408;2023-02-15T02:08:03;11.60;99.90
4356;DHT22;64374;51.482;7.408;2023-02-15T02:10:32;11.40;99.90
4356;DHT22;64374;51.482;7.408;2023-02-15T02:13:03;11.40;99.90
4356;DHT22;64374;51.482;7.408;2023-02-15T02:15:40;11.50;99.90
4356;DHT22;64374;51.482;7.408;2023-02-15T02:18:21;11.50;99.90
4356;DHT22;64374;51.482;7.408;2023-02-15T02:23:58;11.50;99.90
4356;DHT22;64374;51.482;7.408;2023-02-15T02:27:14;11.30;99.90
4356;DHT22;64374;51.482;7.408;2023-02-15T02:33:23;11.40;99.90
4356;DHT22;64374;51.482;7.408;2023-02-15T02:36:02;11.10;99.90
4356;DHT22;64374;51.482;7.408;2023-02-15T02:38:44;11.20;99.90
4356;DHT22;64374;51.482;7.408;2023-02-15T02:41:20;11.40;99.90
4356;DHT22;64374;51.482;7.408;2023-02-15T02:43:54;11.30;99.90
4356;DHT22;64374;51.482;7.408;2023-02-15T02:46:28;11.20;99.90
4356;DHT22;64374;51.482;7.408;2023-02-15T02:49:02;11.10;99.90
4356;DHT22;64374;51.482;7.408;2023-02-15T02:51:30;11.00;99.90
4356;DHT22;64374;51.482;7.408;2023-02-15T02:54:01;11.00;99.90
4356;DHT22;64374;51.482;7.408;2023-02-15T02:56:33;11.10;99.90
4356;DHT22;64374;51.482;7.408;2023-02-15T02:59:10;11.10;99.90
4356;DHT22;64374;51.482;7.408;2023-02-15T03:01:43;11.00;99.90
4356;DHT22;64374;51.482;7.408;2023-02-15T03:04:15;11.00;99.90
4356;DHT22;64374;51.482;7.408;2023-02-15T03:06:48;11.10;99.90
4356;DHT22;64374;51.482;7.408;2023-02-15T03:09:23;11.00;99.90
4356;DHT22;64374;51.482;7.408;2023-02-15T03:12:04;11.10;99.90
4356;DHT22;64374;51.482;7.408;2023-02-15T03:14:38;10.90;99.90
4356;DHT22;64374;51.482;7.408;2023-02-15T03:17:08;10.80;99.90
4356;DHT22;64374;51.482;7.408;2023-02-15T03:19:40;10.80;99.90
4356;DHT22;64374;51.482;7.408;2023-02-15T03:22:14;11.00;99.90
4356;DHT22;64374;51.482;7.408;2023-02-15T03:24:53;10.90;99.90
4356;DHT22;64374;51.482;7.408;2023-02-15T03:27:26;11.00;99.90
4356;DHT22;64374;51.482;7.408;2023-02-15T03:29:57;11.10;99.90
4356;DHT22;64374;51.482;7.408;2023-02-15T03:32:28;11.00;99.90
4356;DHT22;64374;51.482;7.408;2023-02-15T03:35:02;11.00;99.90
4356;DHT22;64374;51.482;7.408;2023-02-15T03:37:36;11.10;99.90
4356;DHT22;64374;51.482;7.408;2023-02-15T03:40:10;11.00;99.90
4356;DHT22;64374;51.482;7.408;2023-02-15T03:43:02;11.30;99.90
4356;DHT22;64374;51.482;7.408;2023-02-15T03:45:38;11.20;99.90
4356;DHT22;64374;51.482;7.408;2023-02-15T03:48:25;11.20;99.90
4356;DHT22;64374;51.482;7.408;2023-02-15T03:50:58;11.30;99.90
4356;DHT22;64374;51.482;7.408;2023-02-15T03:53:47;11.10;99.90
4356;DHT22;64374;51.482;7.408;2023-02-15T03:56:16;10.90;99.90
4356;DHT22;64374;51.482;7.408;2023-02-15T03:58:44;10.80;99.90
4356;DHT22;64374;51.482;7.408;2023-02-15T04:01:36;10.80;99.90
4356;DHT22;64374;51.482;7.408;2023-02-15T04:04:24;10.70;99.90
4356;DHT22;64374;51.482;7.408;2023-02-15T04:06:54;10.60;99.90
4356;DHT22;64374;51.482;7.408;2023-02-15T04:09:24;10.70;99.90
4356;DHT22;64374;51.482;7.408;2023-02-15T04:12:10;10.70;99.90
4356;DHT22;64374;51.482;7.408;2023-02-15T04:14:39;10.80;99.90
4356;DHT22;64374;51.482;7.408;2023-02-15T04:17:25;10.70;99.90
4356;DHT22;64374;51.482;7.408;2023-02-15T04:19:54;10.70;99.90
4356;DHT22;64374;51.482;7.408;2023-02-15T04:22:41;10.70;99.90
4356;DHT22;64374;51.482;7.408;2023-02-15T04:25:27;10.90;99.90
4356;DHT22;64374;51.482;7.408;2023-02-15T04:27:55;10.90;99.90
4356;DHT22;64374;51.482;7.408;2023-02-15T04:30:25;10.50;99.90
4356;DHT22;64374;51.482;7.408;2023-02-15T04:32:54;10.70;99.90
4356;DHT22;64374;51.482;7.408;2023-02-15T04:35:24;10.70;99.90
4356;DHT22;64374;51.482;7.408;2023-02-15T04:37:53;10.70;99.90
4356;DHT22;64374;51.482;7.408;2023-02-15T04:40:26;10.70;99.90
4356;DHT22;64374;51.482;7.408;2023-02-15T04:42:54;11.00;99.90
4356;DHT22;64374;51.482;7.408;2023-02-15T04:45:22;10.90;99.90
4356;DHT22;64374;51.482;7.408;2023-02-15T04:47:51;10.90;99.90
4356;DHT22;64374;51.482;7.408;2023-02-15T04:50:19;10.80;99.90
4356;DHT22;64374;51.482;7.408;2023-02-15T04:52:48;10.80;99.90
4356;DHT22;64374;51.482;7.408;2023-02-15T04:55:18;11.00;99.90
4356;DHT22;64374;51.482;7.408;2023-02-15T04:57:46;11.10;99.90
4356;DHT22;64374;51.482;7.408;2023-02-15T05:00:15;11.10;99.90
4356;DHT22;64374;51.482;7.408;2023-02-15T05:02:47;11.10;99.90
4356;DHT22;64374;51.482;7.408;2023-02-15T05:05:15;10.90;99.90
4356;DHT22;64374;51.482;7.408;2023-02-15T05:07:45;10.90;99.90
4356;DHT22;64374;51.482;7.408;2023-02-15T05:10:13;10.80;99.90
4356;DHT22;64374;51.482;7.408;2023-02-15T05:12:43;10.70;99.90
4356;DHT22;64374;51.482;7.408;2023-02-15T05:15:11;10.50;99.90
4356;DHT22;64374;51.482;7.408;2023-02-15T05:17:40;10.40;99.90
4356;DHT22;64374;51.482;7.408;2023-02-15T05:20:09;10.30;99.90
4356;DHT22;64374;51.482;7.408;2023-02-15T05:22:38;10.30;99.90
4356;DHT22;64374;51.482;7.408;2023-02-15T05:25:08;10.50;99.90
4356;DHT22;64374;51.482;7.408;2023-02-15T05:27:56;10.40;99.90
4356;DHT22;64374;51.482;7.408;2023-02-15T05:30:42;10.50;99.90
4356;DHT22;64374;51.482;7.408;2023-02-15T05:33:11;10.50;99.90
4356;DHT22;64374;51.482;7.408;2023-02-15T05:35:39;10.60;99.90
4356;DHT22;64374;51.482;7.408;2023-02-15T05:38:08;10.60;99.90
4356;DHT22;64374;51.482;7.408;2023-02-15T05:40:36;10.60;99.90
4356;DHT22;64374;51.482;7.408;2023-02-15T05:43:06;10.60;99.90
4356;DHT22;64374;51.482;7.408;2023-02-15T05:45:36;10.60;99.90
4356;DHT22;64374;51.482;7.408;2023-02-15T05:48:04;10.70;99.90
4356;DHT22;64374;51.482;7.408;2023-02-15T05:50:32;10.70;99.90
4356;DHT22;64374;51.482;7.408;2023-02-15T05:53:00;10.60;99.90
4356;DHT22;64374;51.482;7.408;2023-02-15T05:55:28;10.80;99.90
4356;DHT22;64374;51.482;7.408;2023-02-15T05:57:57;10.70;99.90
4356;DHT22;64374;51.482;7.408;2023-02-15T06:00:29;10.70;99.90
4356;DHT22;64374;51.482;7.408;2023-02-15T06:02:57;10.80;99.90
4356;DHT22;64374;51.482;7.408;2023-02-15T06:05:25;10.70;99.90
4356;DHT22;64374;51.482;7.408;2023-02-15T06:07:54;10.60;99.90
4356;DHT22;64374;51.482;7.408;2023-02-15T06:10:22;10.70;99.90
4356;DHT22;64374;51.482;7.408;2023-02-15T06:12:51;10.70;99.90
4356;DHT22;64374;51.482;7.408;2023-02-15T06:15:20;10.70;99.90
4356;DHT22;64374;51.482;7.408;2023-02-15T06:17:53;10.60;99.90
4356;DHT22;64374;51.482;7.408;2023-02-15T06:20:23;10.70;99.90
4356;DHT22;64374;51.482;7.408;2023-02-15T06:22:53;10.70;99.90
4356;DHT22;64374;51.482;7.408;2023-02-15T06:25:26;11.00;99.90
4356;DHT22;64374;51.482;7.408;2023-02-15T06:27:54;11.00;99.90
4356;DHT22;64374;51.482;7.408;2023-02-15T06:30:26;10.80;99.90
4356;DHT22;64374;51.482;7.408;2023-02-15T06:32:56;10.50;99.90
4356;DHT22;64374;51.482;7.408;2023-02-15T06:35:24;10.60;99.90
4356;DHT22;64374;51.482;7.408;2023-02-15T06:37:53;10.50;99.90
4356;DHT22;64374;51.482;7.408;2023-02-15T06:40:21;10.50;99.90
4356;DHT22;64374;51.482;7.408;2023-02-15T06:42:50;10.50;99.90
4356;DHT22;64374;51.482;7.408;2023-02-15T06:45:18;10.40;99.90
4356;DHT22;64374;51.482;7.408;2023-02-15T06:47:46;10.50;99.90
4356;DHT22;64374;51.482;7.408;2023-02-15T06:50:15;10.50;99.90
4356;DHT22;64374;51.482;7.408;2023-02-15T06:52:44;10.30;99.90
4356;DHT22;64374;51.482;7.408;2023-02-15T06:55:12;10.20;99.90
4356;DHT22;64374;51.482;7.408;2023-02-15T06:57:42;10.30;99.90
4356;DHT22;64374;51.482;7.408;2023-02-15T07:00:12;10.40;99.90
4356;DHT22;64374;51.482;7.408;2023-02-15T07:02:40;10.60;99.90
4356;DHT22;64374;51.482;7.408;2023-02-15T07:05:08;10.50;99.90
4356;DHT22;64374;51.482;7.408;2023-02-15T07:07:38;10.60;99.90
4356;DHT22;64374;51.482;7.408;2023-02-15T07:10:07;10.70;99.90
4356;DHT22;64374;51.482;7.408;2023-02-15T07:12:35;10.80;99.90
4356;DHT22;64374;51.482;7.408;2023-02-15T07:15:08;10.70;99.90
4356;DHT22;64374;51.482;7.408;2023-02-15T07:17:37;10.40;99.90
4356;DHT22;64374;51.482;7.408;2023-02-15T07:20:10;10.30;99.90
4356;DHT22;64374;51.482;7.408;2023-02-15T07:22:40;10.30;99.90
4356;DHT22;64374;51.482;7.408;2023-02-15T07:25:10;10.30;99.90
4356;DHT22;64374;51.482;7.408;2023-02-15T07:27:39;10.30;99.90
4356;DHT22;64374;51.482;7.408;2023-02-15T07:30:12;10.30;99.90
4356;DHT22;64374;51.482;7.408;2023-02-15T07:32:40;10.40;99.90
4356;DHT22;64374;51.482;7.408;2023-02-15T07:35:22;10.40;99.90
4356;DHT22;64374;51.482;7.408;2023-02-15T07:37:55;10.50;99.90
4356;DHT22;64374;51.482;7.408;2023-02-15T07:40:24;10.50;99.90
4356;DHT22;64374;51.482;7.408;2023-02-15T07:42:53;10.40;99.90
4356;DHT22;64374;51.482;7.408;2023-02-15T07:45:22;10.60;99.90
4356;DHT22;64374;51.482;7.408;2023-02-15T07:47:50;10.60;99.90
4356;DHT22;64374;51.482;7.408;2023-02-15T07:50:19;10.60;99.90
4356;DHT22;64374;51.482;7.408;2023-02-15T07:52:48;10.40;99.90
4356;DHT22;64374;51.482;7.408;2023-02-15T07:55:19;10.70;99.90
4356;DHT22;64374;51.482;7.408;2023-02-15T07:57:48;10.70;99.90
4356;DHT22;64374;51.482;7.408;2023-02-15T08:00:19;10.60;99.90
4356;DHT22;64374;51.482;7.408;2023-02-15T08:02:51;10.60;99.90
4356;DHT22;64374;51.482;7.408;2023-02-15T08:05:42;10.70;99.90
4356;DHT22;64374;51.482;7.408;2023-02-15T08:08:11;10.60;99.90
4356;DHT22;64374;51.482;7.408;2023-02-15T08:11:03;10.70;99.90
4356;DHT22;64374;51.482;7.408;2023-02-15T08:13:51;10.60;99.90
4356;DHT22;64374;51.482;7.408;2023-02-15T08:16:29;10.80;99.90
4356;DHT22;64374;51.482;7.408;2023-02-15T08:18:59;10.90;99.90
4356;DHT22;64374;51.482;7.408;2023-02-15T08:21:30;10.70;99.90
4356;DHT22;64374;51.482;7.408;2023-02-15T08:23:59;10.80;99.90
4356;DHT22;64374;51.482;7.408;2023-02-15T08:26:29;10.80;99.90
4356;DHT22;64374;51.482;7.408;2023-02-15T08:28:58;11.00;99.90
4356;DHT22;64374;51.482;7.408;2023-02-15T08:31:27;11.00;99.90
4356;DHT22;64374;51.482;7.408;2023-02-15T08:33:57;11.00;99.90
4356;DHT22;64374;51.482;7.408;2023-02-15T08:36:28;11.10;99.90
4356;DHT22;64374;51.482;7.408;2023-02-15T08:38:58;11.20;99.90
4356;DHT22;64374;51.482;7.408;2023-02-15T08:41:30;11.40;99.90
4356;DHT22;64374;51.482;7.408;2023-02-15T08:44:02;11.40;99.90
4356;DHT22;64374;51.482;7.408;2023-02-15T08:46:33;11.50;99.90
4356;DHT22;64374;51.482;7.408;2023-02-15T08:49:02;11.50;99.90
4356;DHT22;64374;51.482;7.408;2023-02-15T08:51:32;11.60;99.90
4356;DHT22;64374;51.482;7.408;2023-02-15T08:54:03;11.70;99.90
4356;DHT22;64374;51.482;7.408;2023-02-15T08:56:36;11.70;99.90
4356;DHT22;64374;51.482;7.408;2023-02-15T08:59:05;11.80;99.90
4356;DHT22;64374;51.482;7.408;2023-02-15T09:01:35;11.70;99.90
4356;DHT22;64374;51.482;7.408;2023-02-15T09:04:04;11.80;99.90
4356;DHT22;64374;51.482;7.408;2023-02-15T09:06:35;11.80;99.90
4356;DHT22;64374;51.482;7.408;2023-02-15T09:09:05;11.90;99.90
4356;DHT22;64374;51.482;7.408;2023-02-15T09:11:36;11.90;99.90
4356;DHT22;64374;51.482;7.408;2023-02-15T09:14:07;12.00;99.90
4356;DHT22;64374;51.482;7.408;2023-02-15T09:16:38;11.90;99.90
4356;DHT22;64374;51.482;7.408;2023-02-15T09:19:06;12.10;99.90
4356;DHT22;64374;51.482;7.408;2023-02-15T09:21:36;12.20;99.90
4356;DHT22;64374;51.482;7.408;2023-02-15T09:24:08;12.20;99.90
4356;DHT22;64374;51.482;7.408;2023-02-15T09:26:40;12.20;99.90
4356;DHT22;64374;51.482;7.408;2023-02-15T09:29:10;12.30;99.90
4356;DHT22;64374;51.482;7.408;2023-02-15T09:31:41;12.40;99.90
4356;DHT22;64374;51.482;7.408;2023-02-15T09:34:11;12.50;99.90
4356;DHT22;64374;51.482;7.408;2023-02-15T09:36:40;12.50;99.90
4356;DHT22;64374;51.482;7.408;2023-02-15T09:39:10;12.50;99.90
4356;DHT22;64374;51.482;7.408;2023-02-15T09:45:01;12.60;99.90
4356;DHT22;64374;51.482;7.408;2023-02-15T09:48:13;12.70;99.90
4356;DHT22;64374;51.482;7.408;2023-02-15T09:50:55;12.90;99.90
4356;DHT22;64374;51.482;7.408;2023-02-15T09:53:40;12.70;99.90
4356;DHT22;64374;51.482;7.408;2023-02-15T09:56:27;12.60;99.90
4356;DHT22;64374;51.482;7.408;2023-02-15T09:59:05;12.30;99.90
4356;DHT22;64374;51.482;7.408;2023-02-15T10:01:44;12.00;99.90
4356;DHT22;64374;51.482;7.408;2023-02-15T10:04:37;12.30;99.90
4356;DHT22;64374;51.482;7.408;2023-02-15T10:07:18;12.60;99.90
4356;DHT22;64374;51.482;7.408;2023-02-15T10:10:07;12.80;99.90
4356;DHT22;64374;51.482;7.408;2023-02-15T10:12:53;12.90;99.90
4356;DHT22;64374;51.482;7.408;2023-02-15T10:15:29;13.00;99.90
4356;DHT22;64374;51.482;7.408;2023-02-15T10:18:23;13.20;99.90
4356;DHT22;64374;51.482;7.408;2023-02-15T10:20:57;13.10;99.90
4356;DHT22;64374;51.482;7.408;2023-02-15T10:23:41;13.00;99.90
4356;DHT22;64374;51.482;7.408;2023-02-15T10:26:17;13.00;99.90
4356;DHT22;64374;51.482;7.408;2023-02-15T10:28:51;13.10;99.90
4356;DHT22;64374;51.482;7.408;2023-02-15T10:31:34;13.40;99.90
4356;DHT22;64374;51.482;7.408;2023-02-15T10:34:16;13.60;99.90
4356;DHT22;64374;51.482;7.408;2023-02-15T10:37:14;13.70;99.90
4356;DHT22;64374;51.482;7.408;2023-02-15T10:39:52;13.60;99.90
4356;DHT22;64374;51.482;7.408;2023-02-15T10:42:30;13.70;99.90
4356;DHT22;64374;51.482;7.408;2023-02-15T10:45:10;14.00;99.90
4356;DHT22;64374;51.482;7.408;2023-02-15T10:47:53;14.50;99.90
4356;DHT22;64374;51.482;7.408;2023-02-15T10:50:34;14.80;99.90
4356;DHT22;64374;51.482;7.408;2023-02-15T10:53:23;15.20;99.90
4356;DHT22;64374;51.482;7.408;2023-02-15T10:56:12;15.60;99.90
4356;DHT22;64374;51.482;7.408;2023-02-15T10:58:56;15.80;99.90
4356;DHT22;64374;51.482;7.408;2023-02-15T11:01:32;15.80;99.90
4356;DHT22;64374;51.482;7.408;2023-02-15T11:04:36;16.20;99.90
4356;DHT22;64374;51.482;7.408;2023-02-15T11:07:11;16.90;99.90
4356;DHT22;64374;51.482;7.408;2023-02-15T11:09:46;17.10;98.50
4356;DHT22;64374;51.482;7.408;2023-02-15T11:12:20;17.20;97.60
4356;DHT22;64374;51.482;7.408;2023-02-15T11:14:54;17.30;97.40
4356;DHT22;64374;51.482;7.408;2023-02-15T11:17:28;17.30;96.10
4356;DHT22;64374;51.482;7.408;2023-02-15T11:20:04;16.90;95.30
4356;DHT22;64374;51.482;7.408;2023-02-15T11:22:38;16.70;95.30
4356;DHT22;64374;51.482;7.408;2023-02-15T11:25:18;16.70;95.90
4356;DHT22;64374;51.482;7.408;2023-02-15T11:27:49;16.50;95.10
4356;DHT22;64374;51.482;7.408;2023-02-15T11:30:20;16.70;95.40
4356;DHT22;64374;51.482;7.408;2023-02-15T11:32:52;17.10;94.00
4356;DHT22;64374;51.482;7.408;2023-02-15T11:35:26;17.70;93.60
4356;DHT22;64374;51.482;7.408;2023-02-15T11:38:02;18.00;91.80
4356;DHT22;64374;51.482;7.408;2023-02-15T11:40:36;19.20;91.20
4356;DHT22;64374;51.482;7.408;2023-02-15T11:43:15;19.50;84.00
4356;DHT22;64374;51.482;7.408;2023-02-15T11:45:45;19.80;81.80
4356;DHT22;64374;51.482;7.408;2023-02-15T11:48:14;20.70;80.80
4356;DHT22;64374;51.482;7.408;2023-02-15T11:50:45;21.50;76.80
4356;DHT22;64374;51.482;7.408;2023-02-15T11:53:16;21.60;70.60
4356;DHT22;64374;51.482;7.408;2023-02-15T11:55:47;21.60;70.00
4356;DHT22;64374;51.482;7.408;2023-02-15T11:58:23;21.90;68.60
4356;DHT22;64374;51.482;7.408;2023-02-15T12:00:58;22.40;68.70
4356;DHT22;64374;51.482;7.408;2023-02-15T12:03:41;23.00;65.70
4356;DHT22;64374;51.482;7.408;2023-02-15T12:06:16;23.70;63.40
4356;DHT22;64374;51.482;7.408;2023-02-15T12:08:54;23.30;59.80
4356;DHT22;64374;51.482;7.408;2023-02-15T12:11:30;23.70;59.80
4356;DHT22;64374;51.482;7.408;2023-02-15T12:14:02;24.10;60.00
4356;DHT22;64374;51.482;7.408;2023-02-15T12:16:40;24.30;57.80
4356;DHT22;64374;51.482;7.408;2023-02-15T12:19:27;24.40;56.70
4356;DHT22;64374;51.482;7.408;2023-02-15T12:21:58;24.20;55.70
4356;DHT22;64374;51.482;7.408;2023-02-15T12:24:32;23.70;54.70
4356;DHT22;64374;51.482;7.408;2023-02-15T12:27:04;24.00;55.10
4356;DHT22;64374;51.482;7.408;2023-02-15T12:29:39;23.90;55.70
4356;DHT22;64374;51.482;7.408;2023-02-15T12:32:15;24.10;55.50
4356;DHT22;64374;51.482;7.408;2023-02-15T12:34:45;24.60;55.40
4356;DHT22;64374;51.482;7.408;2023-02-15T12:37:17;24.50;54.50
4356;DHT22;64374;51.482;7.408;2023-02-15T12:39:57;24.90;54.70
4356;DHT22;64374;51.482;7.408;2023-02-15T12:42:27;25.50;53.80
4356;DHT22;64374;51.482;7.408;2023-02-15T12:45:00;25.90;52.70
4356;DHT22;64374;51.482;7.408;2023-02-15T12:47:30;26.20;51.30
4356;DHT22;64374;51.482;7.408;2023-02-15T12:50:31;26.50;51.20
4356;DHT22;64374;51.482;7.408;2023-02-15T12:53:08;26.50;49.70
4356;DHT22;64374;51.482;7.408;2023-02-15T12:55:50;26.60;50.10
4356;DHT22;64374;51.482;7.408;2023-02-15T12:58:20;26.50;50.40
4356;DHT22;64374;51.482;7.408;2023-02-15T13:01:03;26.30;50.60
4356;DHT22;64374;51.482;7.408;2023-02-15T13:03:33;26.30;48.50
4356;DHT22;64374;51.482;7.408;2023-02-15T13:06:03;26.10;50.00
4356;DHT22;64374;51.482;7.408;2023-02-15T13:08:46;26.80;48.60
4356;DHT22;64374;51.482;7.408;2023-02-15T13:11:22;26.60;49.00
4356;DHT22;64374;51.482;7.408;2023-02-15T13:13:56;26.30;47.60
4356;DHT22;64374;51.482;7.408;2023-02-15T13:16:31;26.60;48.30
4356;DHT22;64374;51.482;7.408;2023-02-15T13:19:04;27.40;48.00
4356;DHT22;64374;51.482;7.408;2023-02-15T13:21:37;27.80;46.90
4356;DHT22;64374;51.482;7.408;2023-02-15T13:24:15;27.90;47.40
4356;DHT22;64374;51.482;7.408;2023-02-15T13:26:48;28.70;45.60
4356;DHT22;64374;51.482;7.408;2023-02-15T13:29:21;28.80;45.50
4356;DHT22;64374;51.482;7.408;2023-02-15T13:31:52;29.10;44.00
4356;DHT22;64374;51.482;7.408;2023-02-15T13:34:25;29.30;43.80
4356;DHT22;64374;51.482;7.408;2023-02-15T13:37:01;29.00;43.50
4356;DHT22;64374;51.482;7.408;2023-02-15T13:39:37;28.90;43.50
4356;DHT22;64374;51.482;7.408;2023-02-15T13:42:19;29.20;42.90
4356;DHT22;64374;51.482;7.408;2023-02-15T13:45:01;28.90;43.20
4356;DHT22;64374;51.482;7.408;2023-02-15T13:47:36;28.70;42.80
4356;DHT22;64374;51.482;7.408;2023-02-15T13:50:20;28.40;43.70
4356;DHT22;64374;51.482;7.408;2023-02-15T13:53:02;28.50;43.20
4356;DHT22;64374;51.482;7.408;2023-02-15T13:55:38;29.10;42.80
4356;DHT22;64374;51.482;7.408;2023-02-15T13:58:30;28.70;42.70
4356;DHT22;64374;51.482;7.408;2023-02-15T14:01:09;28.90;42.50
4356;DHT22;64374;51.482;7.408;2023-02-15T14:06:43;28.70;43.50
4356;DHT22;64374;51.482;7.408;2023-02-15T14:09:23;28.80;42.50
4356;DHT22;64374;51.482;7.408;2023-02-15T14:12:08;28.60;42.80
4356;DHT22;64374;51.482;7.408;2023-02-15T14:14:57;29.00;42.00
4356;DHT22;64374;51.482;7.408;2023-02-15T14:17:37;28.70;42.20
4356;DHT22;64374;51.482;7.408;2023-02-15T14:20:20;28.20;43.50
4356;DHT22;64374;51.482;7.408;2023-02-15T14:22:57;28.10;44.10
4356;DHT22;64374;51.482;7.408;2023-02-15T14:25:34;27.70;42.90
4356;DHT22;64374;51.482;7.408;2023-02-15T14:28:11;27.60;43.40
4356;DHT22;64374;51.482;7.408;2023-02-15T14:30:46;27.50;43.40
4356;DHT22;64374;51.482;7.408;2023-02-15T14:33:29;27.10;44.40
4356;DHT22;64374;51.482;7.408;2023-02-15T14:36:05;27.30;43.70
4356;DHT22;64374;51.482;7.408;2023-02-15T14:38:47;27.40;43.70
4356;DHT22;64374;51.482;7.408;2023-02-15T14:41:20;27.00;44.30
4356;DHT22;64374;51.482;7.408;2023-02-15T14:43:55;26.40;44.80
4356;DHT22;64374;51.482;7.408;2023-02-15T14:46:31;26.10;44.40
4356;DHT22;64374;51.482;7.408;2023-02-15T14:49:06;25.00;44.90
4356;DHT22;64374;51.482;7.408;2023-02-15T14:51:59;24.30;46.40
4356;DHT22;64374;51.482;7.408;2023-02-15T14:54:55;23.70;46.90
4356;DHT22;64374;51.482;7.408;2023-02-15T14:57:55;22.70;46.80
4356;DHT22;64374;51.482;7.408;2023-02-15T15:00:39;22.20;47.70
4356;DHT22;64374;51.482;7.408;2023-02-15T15:03:27;21.80;48.70
4356;DHT22;64374;51.482;7.408;2023-02-15T15:05:56;21.30;48.90
4356;DHT22;64374;51.482;7.408;2023-02-15T15:08:34;21.30;49.70
4356;DHT22;64374;51.482;7.408;2023-02-15T15:11:45;21.10;49.90
4356;DHT22;64374;51.482;7.408;2023-02-15T15:14:41;21.00;50.20
4356;DHT22;64374;51.482;7.408;2023-02-15T15:17:11;21.10;49.90
4356;DHT22;64374;51.482;7.408;2023-02-15T15:20:09;20.90;50.20
4356;DHT22;64374;51.482;7.408;2023-02-15T15:22:42;20.80;50.80
4356;DHT22;64374;51.482;7.408;2023-02-15T15:27:56;21.00;50.30
4356;DHT22;64374;51.482;7.408;2023-02-15T15:30:59;20.90;51.00
4356;DHT22;64374;51.482;7.408;2023-02-15T15:37:16;20.80;51.40
4356;DHT22;64374;51.482;7.408;2023-02-15T15:43:45;20.60;51.20
4356;DHT22;64374;51.482;7.408;2023-02-15T15:46:45;20.50;51.90
4356;DHT22;64374;51.482;7.408;2023-02-15T15:49:19;20.30;52.00
4356;DHT22;64374;51.482;7.408;2023-02-15T15:51:48;20.00;53.00
4356;DHT22;64374;51.482;7.408;2023-02-15T15:54:20;20.10;53.30
4356;DHT22;64374;51.482;7.408;2023-02-15T15:56:52;19.90;53.20
4356;DHT22;64374;51.482;7.408;2023-02-15T15:59:24;19.80;53.30
4356;DHT22;64374;51.482;7.408;2023-02-15T16:01:53;19.60;53.50
4356;DHT22;64374;51.482;7.408;2023-02-15T16:04:24;19.40;53.80
4356;DHT22;64374;51.482;7.408;2023-02-15T16:06:54;19.20;54.20
4356;DHT22;64374;51.482;7.408;2023-02-15T16:09:26;19.20;54.60
4356;DHT22;64374;51.482;7.408;2023-02-15T16:11:56;19.00;54.50
4356;DHT22;64374;51.482;7.408;2023-02-15T16:14:30;18.80;54.80
4356;DHT22;64374;51.482;7.408;2023-02-15T16:17:01;18.80;55.40
4356;DHT22;64374;51.482;7.408;2023-02-15T16:19:34;18.70;55.10
4356;DHT22;64374;51.482;7.408;2023-02-15T16:22:09;18.50;55.30
4356;DHT22;64374;51.482;7.408;2023-02-15T16:25:17;18.40;56.30
4356;DHT22;64374;51.482;7.408;2023-02-15T16:27:49;18.30;56.30
4356;DHT22;64374;51.482;7.408;2023-02-15T16:30:26;18.00;56.50
4356;DHT22;64374;51.482;7.408;2023-02-15T16:33:02;18.00;56.90
4356;DHT22;64374;51.482;7.408;2023-02-15T16:35:34;18.00;57.30
4356;DHT22;64374;51.482;7.408;2023-02-15T16:38:10;18.10;57.20
4356;DHT22;64374;51.482;7.408;2023-02-15T16:40:47;18.00;57.40
4356;DHT22;64374;51.482;7.408;2023-02-15T16:43:22;18.20;57.70
4356;DHT22;64374;51.482;7.408;2023-02-15T16:46:03;18.20;58.00
4356;DHT22;64374;51.482;7.408;2023-02-15T16:48:38;18.00;57.30
4356;DHT22;64374;51.482;7.408;2023-02-15T16:51:07;17.70;57.30
4356;DHT22;64374;51.482;7.408;2023-02-15T16:53:37;17.40;57.70